Time;durP1;ratioP1;P1;durP2;ratioP2;P2;SDS_P1;SDS_P2;PMS_P1;PMS_P2;Temp;Humidity;BMP_temperature;BMP_pressure;BME280_temperature;BME280_humidity;BME280_pressure;Samples;Min_cycle;Max_cycle;Signal;HPM_P1;HPM_P2
2022/03/07 00:01:41;;;;;;;17.07;10.40;;;-1.60;53.30;;;;;;5054292;28;20179;-77
2022/03/07 00:04:07;;;;;;;15.43;10.40;;;-1.60;99.90;;;;;;5055627;28;20262;-78
2022/03/07 00:06:32;;;;;;;13.33;8.80;;;-1.60;99.90;;;;;;5054413;28;20269;-77
2022/03/07 00:08:58;;;;;;;16.67;9.93;;;-1.60;99.90;;;;;;5051679;28;20206;-78
2022/03/07 00:11:24;;;;;;;15.47;9.87;;;-1.70;1.00;;;;;;5034211;28;20221;-78
2022/03/07 00:13:49;;;;;;;18.67;10.73;;;-1.70;1.00;;;;;;5034238;28;20179;-77
2022/03/07 00:16:16;;;;;;;15.07;9.93;;;-1.70;1.00;;;;;;5035418;28;20546;-78
2022/03/07 00:18:42;;;;;;;17.80;10.73;;;-1.70;1.00;;;;;;5035849;28;20678;-78
2022/03/07 00:21:09;;;;;;;14.73;9.90;;;-1.70;1.00;;;;;;5055096;28;20199;-77
2022/03/07 00:23:35;;;;;;;13.73;9.63;;;-1.80;1.00;;;;;;5055286;28;20305;-77
2022/03/07 00:26:00;;;;;;;16.73;10.03;;;-1.80;1.00;;;;;;5054942;28;20225;-77
2022/03/07 00:28:26;;;;;;;15.27;9.73;;;-1.80;1.00;;;;;;5055879;28;20194;-77
2022/03/07 00:30:51;;;;;;;14.30;9.93;;;-1.80;1.00;;;;;;5035760;28;20179;-78
2022/03/07 00:33:17;;;;;;;15.93;10.43;;;-1.80;1.00;;;;;;5035201;28;20178;-77
2022/03/07 00:35:43;;;;;;;15.03;9.57;;;-1.80;32.20;;;;;;5033830;28;20259;-77
2022/03/07 00:38:08;;;;;;;15.27;10.43;;;-1.90;73.30;;;;;;5033567;28;20214;-77
2022/03/07 00:40:34;;;;;;;12.90;9.57;;;-1.90;99.90;;;;;;5050581;28;20178;-77
2022/03/07 00:43:00;;;;;;;22.30;10.63;;;-1.90;99.90;;;;;;5055370;28;20182;-77
2022/03/07 00:45:26;;;;;;;15.50;9.90;;;-1.90;99.90;;;;;;5055007;28;20177;-77
2022/03/07 00:47:51;;;;;;;14.27;9.87;;;-1.90;99.90;;;;;;5053554;28;20200;-77
2022/03/07 00:50:17;;;;;;;17.13;10.30;;;-2.00;99.90;;;;;;5039897;28;20172;-77
2022/03/07 00:52:43;;;;;;;15.47;9.93;;;-1.90;99.90;;;;;;5035131;28;20228;-77
2022/03/07 00:55:09;;;;;;;14.03;9.50;;;-2.00;99.90;;;;;;5033499;28;20179;-77
2022/03/07 00:57:34;;;;;;;15.93;10.27;;;-2.10;99.90;;;;;;5034736;28;20634;-77
2022/03/07 01:00:00;;;;;;;15.40;10.17;;;-2.00;99.90;;;;;;5045561;28;20181;-77
2022/03/07 01:02:25;;;;;;;17.80;9.97;;;-2.00;99.90;;;;;;5055111;28;20206;-77
2022/03/07 01:04:51;;;;;;;13.80;9.63;;;-2.00;99.90;;;;;;5053584;28;20684;-76
2022/03/07 01:07:17;;;;;;;17.23;10.00;;;-2.10;99.90;;;;;;5054725;28;20220;-78
2022/03/07 01:09:42;;;;;;;17.27;10.90;;;-2.00;99.90;;;;;;5046603;28;20670;-77
2022/03/07 01:12:08;;;;;;;15.70;10.60;;;-2.10;99.90;;;;;;5035251;28;20197;-77
2022/03/07 01:14:34;;;;;;;16.47;11.20;;;-2.10;99.90;;;;;;5037134;28;20167;-77
2022/03/07 01:17:00;;;;;;;19.00;10.87;;;-2.10;99.90;;;;;;5037309;28;20191;-77
2022/03/07 01:19:25;;;;;;;19.33;10.53;;;-2.20;99.90;;;;;;5085787;23;20320;-80
2022/03/07 01:21:51;;;;;;;18.43;11.40;;;-2.10;99.90;;;;;;5076067;28;20161;-79
2022/03/07 01:24:18;;;;;;;20.73;11.40;;;-2.20;99.90;;;;;;5076824;28;20165;-80
2022/03/07 01:26:43;;;;;;;19.23;11.13;;;-2.20;99.90;;;;;;5075334;28;20174;-79
2022/03/07 01:29:09;;;;;;;15.77;10.77;;;-2.20;99.90;;;;;;5071011;28;20208;-80
2022/03/07 01:31:35;;;;;;;16.73;10.33;;;-2.20;99.90;;;;;;5055153;28;20173;-79
2022/03/07 01:34:00;;;;;;;15.57;10.03;;;-2.20;99.90;;;;;;5054844;28;20521;-79
2022/03/07 01:36:26;;;;;;;13.60;9.10;;;-2.20;99.90;;;;;;5057151;28;20513;-80
2022/03/07 01:38:51;;;;;;;14.47;9.23;;;-2.30;99.90;;;;;;5057831;28;20599;-79
2022/03/07 01:41:17;;;;;;;15.77;9.43;;;-2.30;99.90;;;;;;5075829;28;20177;-79
2022/03/07 01:43:43;;;;;;;13.93;8.57;;;-2.30;99.90;;;;;;5075463;28;20180;-80
2022/03/07 01:46:09;;;;;;;14.07;9.47;;;-2.30;99.90;;;;;;5076606;28;20188;-80
2022/03/07 01:48:36;;;;;;;12.10;9.37;;;-2.20;99.90;;;;;;5076659;28;20200;-79
2022/03/07 01:51:01;;;;;;;13.67;10.20;;;-2.20;99.90;;;;;;5057525;28;20519;-80
2022/03/07 01:53:27;;;;;;;15.43;10.07;;;-2.30;99.90;;;;;;5056633;28;20175;-80
2022/03/07 01:55:55;;;;;;;16.13;8.90;;;-2.30;99.90;;;;;;5056918;28;20181;-78
2022/03/07 01:58:21;;;;;;;14.07;9.90;;;-2.30;99.90;;;;;;5065377;28;20550;-80
2022/03/07 02:00:47;;;;;;;16.77;9.40;;;-2.30;99.90;;;;;;5059276;28;20192;-79
2022/03/07 02:03:13;;;;;;;12.07;8.73;;;-2.30;99.90;;;;;;5055366;28;20186;-80
2022/03/07 02:05:39;;;;;;;15.50;9.80;;;-2.30;99.90;;;;;;5055467;28;20181;-80
2022/03/07 02:08:05;;;;;;;14.80;10.33;;;-2.20;99.90;;;;;;5055191;28;20218;-80
2022/03/07 02:10:31;;;;;;;18.00;10.33;;;-2.30;99.90;;;;;;5070707;28;20267;-80
2022/03/07 02:12:57;;;;;;;16.27;9.87;;;-2.30;99.90;;;;;;5076600;28;20202;-78
2022/03/07 02:15:22;;;;;;;16.63;9.90;;;-2.20;99.90;;;;;;5075680;28;20173;-80
2022/03/07 02:17:48;;;;;;;14.17;9.90;;;-2.20;99.90;;;;;;5077562;28;20167;-80
2022/03/07 02:20:15;;;;;;;15.23;9.90;;;-2.20;99.90;;;;;;5067832;28;20182;-79
2022/03/07 02:22:41;;;;;;;14.40;9.70;;;-2.20;99.90;;;;;;5070426;28;20178;-79
2022/03/07 02:25:07;;;;;;;13.07;9.00;;;-2.20;99.90;;;;;;5065159;28;20181;-78
2022/03/07 02:27:34;;;;;;;16.17;10.30;;;-2.10;99.90;;;;;;5075723;28;20234;-79
2022/03/07 02:29:59;;;;;;;14.97;9.93;;;-2.10;99.90;;;;;;5064124;28;20242;-79
2022/03/07 02:32:26;;;;;;;17.60;10.73;;;-2.10;99.90;;;;;;5055565;28;20178;-80
2022/03/07 02:34:51;;;;;;;16.50;11.17;;;-2.10;99.90;;;;;;5054520;28;20186;-80
2022/03/07 02:37:17;;;;;;;14.77;10.33;;;-2.10;99.90;;;;;;5055451;28;20179;-80
2022/03/07 02:39:43;;;;;;;15.67;10.40;;;-2.00;99.90;;;;;;5062678;28;20209;-80
2022/03/07 02:42:09;;;;;;;14.73;9.60;;;-2.00;99.90;;;;;;5072229;28;20569;-80
2022/03/07 02:44:34;;;;;;;18.50;11.03;;;-2.00;99.90;;;;;;5075647;28;20179;-80
2022/03/07 02:47:00;;;;;;;20.03;11.27;;;-2.00;99.90;;;;;;5076066;28;20241;-80
2022/03/07 02:49:25;;;;;;;14.63;11.27;;;-2.00;99.90;;;;;;5074419;28;20208;-80
2022/03/07 02:51:51;;;;;;;17.23;11.47;;;-2.00;99.90;;;;;;5074801;28;20242;-80
2022/03/07 02:54:16;;;;;;;16.17;10.73;;;-2.00;99.90;;;;;;5078086;28;20175;-79
2022/03/07 02:56:44;;;;;;;16.07;10.07;;;-1.90;99.90;;;;;;5080738;28;20644;-79
2022/03/07 02:59:10;;;;;;;16.13;10.60;;;-1.90;99.90;;;;;;5064884;28;20194;-80
2022/03/07 03:01:36;;;;;;;15.67;9.67;;;-1.90;99.90;;;;;;5079017;28;20212;-79
2022/03/07 03:04:02;;;;;;;17.20;10.97;;;-1.90;99.90;;;;;;5077596;28;20183;-80
2022/03/07 03:06:28;;;;;;;15.07;10.57;;;-1.90;99.90;;;;;;5079562;28;20559;-80
2022/03/07 03:08:53;;;;;;;14.57;11.27;;;-1.90;99.90;;;;;;5077524;28;20205;-79
2022/03/07 03:11:19;;;;;;;16.10;10.70;;;-1.80;99.90;;;;;;5058582;28;20181;-80
2022/03/07 03:13:45;;;;;;;16.17;10.97;;;-1.80;99.90;;;;;;5058072;28;20176;-80
2022/03/07 03:16:11;;;;;;;16.30;10.77;;;-1.80;99.90;;;;;;5058430;28;20200;-79
2022/03/07 03:18:37;;;;;;;13.97;10.53;;;-1.80;99.90;;;;;;5061378;28;20705;-80
2022/03/07 03:21:03;;;;;;;16.07;11.03;;;-1.70;99.90;;;;;;5079541;28;20185;-80
2022/03/07 03:23:28;;;;;;;15.47;10.87;;;-1.70;99.90;;;;;;5078054;28;20654;-80
2022/03/07 03:25:54;;;;;;;17.67;11.23;;;-1.70;99.90;;;;;;5079251;28;20573;-80
2022/03/07 03:28:23;;;;;;;16.33;10.50;;;-1.70;99.90;;;;;;5079708;28;20250;-80
2022/03/07 03:30:50;;;;;;;14.17;11.03;;;-1.60;99.90;;;;;;5060349;28;20174;-80
2022/03/07 03:33:15;;;;;;;16.63;11.10;;;-1.60;99.90;;;;;;5058254;28;20185;-80
2022/03/07 03:35:41;;;;;;;15.43;11.00;;;-1.60;99.90;;;;;;5059335;28;20740;-80
2022/03/07 03:38:10;;;;;;;17.20;12.20;;;-1.60;99.90;;;;;;5059294;28;20273;-80
2022/03/07 03:40:36;;;;;;;17.40;11.93;;;-1.50;99.90;;;;;;5075133;28;20178;-80
2022/03/07 03:43:02;;;;;;;15.67;11.40;;;-1.50;99.90;;;;;;5077610;28;20182;-80
2022/03/07 03:45:27;;;;;;;16.43;12.07;;;-1.50;99.90;;;;;;5079376;28;20226;-80
2022/03/07 03:47:53;;;;;;;17.87;11.30;;;-1.50;99.90;;;;;;5077747;28;20240;-79
2022/03/07 03:50:18;;;;;;;17.30;11.57;;;-1.50;99.90;;;;;;5078839;28;20167;-80
2022/03/07 03:52:45;;;;;;;16.77;11.27;;;-1.40;99.90;;;;;;5079180;28;20277;-79
2022/03/07 03:55:12;;;;;;;16.53;11.10;;;-1.50;99.90;;;;;;5079754;28;20173;-80
2022/03/07 03:57:39;;;;;;;16.47;11.30;;;-1.40;99.90;;;;;;5075034;28;20660;-79
2022/03/07 04:00:07;;;;;;;22.97;11.70;;;-1.40;99.90;;;;;;5071289;28;20198;-80
2022/03/07 04:02:32;;;;;;;16.20;11.90;;;-1.40;99.90;;;;;;5079362;28;20180;-79
2022/03/07 04:04:58;;;;;;;16.37;11.70;;;-1.30;99.90;;;;;;5076951;28;20181;-80
2022/03/07 04:07:24;;;;;;;17.97;11.53;;;-1.30;99.90;;;;;;5078181;28;20600;-79
2022/03/07 04:09:50;;;;;;;16.93;11.50;;;-1.40;99.90;;;;;;5068448;28;20211;-80
2022/03/07 04:12:15;;;;;;;15.47;11.03;;;-1.30;99.90;;;;;;5062434;28;20215;-79
2022/03/07 04:14:41;;;;;;;16.53;11.47;;;-1.30;99.90;;;;;;5065111;28;20175;-80
2022/03/07 04:17:07;;;;;;;18.57;10.80;;;-1.30;99.90;;;;;;5058855;28;20182;-80
2022/03/07 04:19:32;;;;;;;15.23;11.10;;;-1.30;99.90;;;;;;5064803;28;20214;-79
2022/03/07 04:21:58;;;;;;;20.43;11.90;;;-1.30;99.90;;;;;;5079015;28;20176;-80
2022/03/07 04:24:23;;;;;;;14.83;10.80;;;-1.20;99.90;;;;;;5077826;28;20178;-79
2022/03/07 04:26:49;;;;;;;16.70;11.50;;;-1.20;99.90;;;;;;5079288;28;20202;-80
2022/03/07 04:29:14;;;;;;;15.30;10.93;;;-1.20;99.90;;;;;;5072483;28;20277;-80
2022/03/07 04:31:42;;;;;;;16.53;11.17;;;-1.20;99.90;;;;;;5059086;28;20171;-79
2022/03/07 04:34:09;;;;;;;20.87;11.67;;;-1.20;99.90;;;;;;5059434;28;20197;-80
2022/03/07 04:36:37;;;;;;;15.97;11.47;;;-1.20;99.90;;;;;;5058363;28;20181;-79
2022/03/07 04:39:03;;;;;;;16.87;11.77;;;-1.10;99.90;;;;;;5062485;28;20202;-79
2022/03/07 04:41:29;;;;;;;17.97;11.67;;;-1.10;99.90;;;;;;5088960;28;20170;-79
2022/03/07 04:43:55;;;;;;;18.83;12.43;;;-1.10;99.90;;;;;;5096312;28;20192;-79
2022/03/07 04:46:20;;;;;;;15.47;11.53;;;-1.10;99.90;;;;;;5096979;28;20205;-79
2022/03/07 04:48:46;;;;;;;16.83;11.60;;;-1.10;99.90;;;;;;5095768;28;20217;-79
2022/03/07 04:51:12;;;;;;;14.50;11.10;;;-1.10;99.90;;;;;;5085725;28;20178;-80
2022/03/07 04:53:37;;;;;;;16.57;11.57;;;-1.10;99.90;;;;;;5076341;28;20188;-80
2022/03/07 04:56:03;;;;;;;19.47;12.10;;;-1.10;99.90;;;;;;5077938;28;20173;-79
2022/03/07 04:58:28;;;;;;;16.80;12.27;;;-1.00;99.90;;;;;;5075291;28;20206;-79
2022/03/07 05:00:54;;;;;;;17.87;12.20;;;-1.00;99.90;;;;;;5059269;28;20270;-80
2022/03/07 05:03:21;;;;;;;19.13;11.57;;;-1.00;99.90;;;;;;5056333;28;20210;-80
2022/03/07 05:05:47;;;;;;;14.93;10.93;;;-1.00;99.90;;;;;;5056792;28;20257;-79
2022/03/07 05:08:13;;;;;;;17.70;11.77;;;-1.00;99.90;;;;;;5055965;28;20267;-79
2022/03/07 05:10:38;;;;;;;16.97;11.93;;;-1.00;99.90;;;;;;5071510;28;20255;-79
2022/03/07 05:13:04;;;;;;;19.93;12.40;;;-1.00;99.90;;;;;;5075478;28;20174;-80
2022/03/07 05:15:30;;;;;;;17.17;12.57;;;-1.00;99.90;;;;;;5076593;28;20169;-79
2022/03/07 05:17:55;;;;;;;19.83;12.83;;;-1.00;99.90;;;;;;5075051;28;20181;-79
2022/03/07 05:20:23;;;;;;;20.60;12.37;;;-1.00;99.90;;;;;;5060202;28;20206;-80
2022/03/07 05:22:48;;;;;;;16.87;11.57;;;-1.00;99.90;;;;;;5057207;28;20196;-79
2022/03/07 05:25:16;;;;;;;18.20;12.57;;;-0.90;99.90;;;;;;5057689;28;20663;-78
2022/03/07 05:27:41;;;;;;;18.73;11.90;;;-1.00;99.90;;;;;;5055568;28;20227;-79
2022/03/07 05:30:09;;;;;;;16.90;11.20;;;-1.00;99.90;;;;;;5068612;28;20206;-79
2022/03/07 05:32:35;;;;;;;16.87;12.07;;;-0.90;99.90;;;;;;5075011;28;20193;-79
2022/03/07 05:35:01;;;;;;;16.40;10.40;;;-1.00;99.90;;;;;;5076675;28;20177;-80
2022/03/07 05:37:26;;;;;;;15.70;11.77;;;-0.90;99.90;;;;;;5076931;28;20523;-80
2022/03/07 05:39:52;;;;;;;16.63;11.90;;;-1.00;99.90;;;;;;5063682;28;20209;-80
2022/03/07 05:42:18;;;;;;;15.83;10.93;;;-1.00;99.90;;;;;;5055733;28;20182;-78
2022/03/07 05:44:44;;;;;;;16.47;11.10;;;-1.00;99.90;;;;;;5057398;28;20657;-80
2022/03/07 05:47:09;;;;;;;16.07;11.67;;;-1.00;99.90;;;;;;5056207;28;20198;-81
2022/03/07 05:49:35;;;;;;;15.83;11.40;;;-1.00;99.90;;;;;;5066368;28;20237;-78
2022/03/07 05:52:01;;;;;;;16.40;12.30;;;-1.00;99.90;;;;;;5074468;28;20181;-79
2022/03/07 05:54:26;;;;;;;16.97;11.53;;;-1.00;99.90;;;;;;5089974;28;20186;-79
2022/03/07 05:56:52;;;;;;;16.93;12.63;;;-1.00;99.90;;;;;;5091517;28;20174;-79
2022/03/07 05:59:18;;;;;;;16.57;11.47;;;-1.00;99.90;;;;;;5072237;28;20723;-80
2022/03/07 06:01:43;;;;;;;17.13;11.17;;;-1.00;99.90;;;;;;5065504;28;20229;-79
2022/03/07 06:04:09;;;;;;;16.67;12.00;;;-1.00;99.90;;;;;;5061041;28;20189;-78
2022/03/07 06:06:35;;;;;;;15.40;11.73;;;-1.00;99.90;;;;;;5056019;28;20247;-79
2022/03/07 06:09:01;;;;;;;19.97;12.50;;;-1.00;99.90;;;;;;5059018;28;20610;-79
2022/03/07 06:11:26;;;;;;;14.73;11.60;;;-1.00;99.90;;;;;;5075028;28;20274;-79
2022/03/07 06:13:52;;;;;;;15.90;11.17;;;-1.00;99.90;;;;;;5075647;28;20208;-79
2022/03/07 06:16:17;;;;;;;17.97;12.03;;;-1.00;99.90;;;;;;5075964;28;20715;-78
2022/03/07 06:18:43;;;;;;;17.50;12.10;;;-0.90;99.90;;;;;;5074426;28;20209;-79
2022/03/07 06:21:08;;;;;;;16.97;12.63;;;-0.90;99.90;;;;;;5055829;28;20190;-78
2022/03/07 06:23:36;;;;;;;19.43;12.57;;;-0.90;99.90;;;;;;5056534;28;20182;-80
2022/03/07 06:26:04;;;;;;;16.27;12.57;;;-0.90;99.90;;;;;;5055596;28;20660;-79
2022/03/07 06:28:30;;;;;;;17.53;11.80;;;-0.90;99.90;;;;;;5057548;28;20209;-79
2022/03/07 06:30:55;;;;;;;15.43;11.60;;;-0.90;99.90;;;;;;5060152;28;20726;-79
2022/03/07 06:33:21;;;;;;;17.97;11.63;;;-0.90;99.90;;;;;;5060768;28;20196;-80
2022/03/07 06:35:46;;;;;;;16.27;11.53;;;-0.90;99.90;;;;;;5058999;28;20274;-77
2022/03/07 06:38:12;;;;;;;16.60;11.43;;;-0.90;99.90;;;;;;5058258;28;20206;-78
2022/03/07 06:40:38;;;;;;;18.30;12.13;;;-0.90;99.90;;;;;;5070851;28;20629;-79
2022/03/07 06:43:03;;;;;;;18.33;12.50;;;-0.90;99.90;;;;;;5076584;28;20182;-79
2022/03/07 06:45:30;;;;;;;18.17;11.60;;;-0.90;99.90;;;;;;5080330;28;20653;-79
2022/03/07 06:47:56;;;;;;;17.80;13.10;;;-0.90;99.90;;;;;;5078367;28;20199;-78
2022/03/07 06:50:22;;;;;;;16.37;11.73;;;-0.90;99.90;;;;;;5076515;28;20181;-78
2022/03/07 06:52:48;;;;;;;20.40;10.90;;;-0.90;99.90;;;;;;5082885;28;20186;-78
2022/03/07 06:55:15;;;;;;;15.83;12.00;;;-0.90;99.90;;;;;;5086880;28;20180;-76
2022/03/07 06:57:42;;;;;;;15.27;11.40;;;-0.80;99.90;;;;;;5087358;28;20177;-77
2022/03/07 07:00:13;;;;;;;18.87;11.90;;;-0.80;99.90;;;;;;5084682;28;20209;-78
2022/03/07 07:02:39;;;;;;;17.37;12.00;;;-0.80;99.90;;;;;;5085409;28;20596;-77
2022/03/07 07:05:05;;;;;;;17.07;12.43;;;-0.70;99.90;;;;;;5088409;28;20174;-78
2022/03/07 07:07:32;;;;;;;17.80;12.30;;;-0.70;99.90;;;;;;5085483;28;20262;-79
2022/03/07 07:09:58;;;;;;;16.30;11.73;;;-0.70;99.90;;;;;;5086516;28;20382;-78
2022/03/07 07:12:23;;;;;;;17.77;12.17;;;-0.60;99.90;;;;;;5083225;28;20177;-78
2022/03/07 07:14:49;;;;;;;19.03;12.10;;;-0.60;99.90;;;;;;5078038;28;20182;-75
2022/03/07 07:17:16;;;;;;;17.50;11.77;;;-0.50;99.90;;;;;;5078207;28;20625;-79
2022/03/07 07:19:42;;;;;;;19.73;13.03;;;-0.50;99.90;;;;;;5075564;22;20684;-93
2022/03/07 07:22:07;;;;;;;16.40;12.50;;;-0.40;99.90;;;;;;5026002;28;20184;-93
2022/03/07 07:24:33;;;;;;;15.70;12.13;;;-0.30;99.90;;;;;;5027259;28;20208;-94
2022/03/07 07:26:59;;;;;;;16.60;11.97;;;-0.30;99.90;;;;;;5030217;28;20199;-93
2022/03/07 07:29:24;;;;;;;19.47;12.27;;;-0.20;99.90;;;;;;5027989;28;20210;-93
2022/03/07 07:31:51;;;;;;;18.03;13.00;;;-0.20;99.90;;;;;;5032281;28;20248;-93
2022/03/07 07:34:18;;;;;;;20.23;12.17;;;-0.10;99.90;;;;;;5035781;28;20219;-94
2022/03/07 07:36:43;;;;;;;18.27;12.93;;;0.00;99.90;;;;;;5034550;28;20623;-94
2022/03/07 07:39:09;;;;;;;18.37;12.67;;;0.00;99.90;;;;;;5036468;28;20180;-94
2022/03/07 07:41:34;;;;;;;17.50;12.57;;;0.10;99.90;;;;;;5035173;28;20186;-94
2022/03/07 07:44:00;;;;;;;18.57;12.53;;;0.20;99.90;;;;;;5034408;28;20185;-94
2022/03/07 07:46:26;;;;;;;16.83;12.57;;;0.20;99.90;;;;;;5034268;28;20196;-94
2022/03/07 07:48:52;;;;;;;16.00;11.97;;;0.30;99.90;;;;;;5036740;28;20243;-94
2022/03/07 07:51:17;;;;;;;17.67;13.27;;;0.40;99.90;;;;;;5036023;28;20206;-94
2022/03/07 07:53:43;;;;;;;16.80;12.43;;;0.40;99.90;;;;;;5027889;28;20185;-94
2022/03/07 07:56:09;;;;;;;18.43;12.43;;;0.50;99.90;;;;;;5031975;28;20168;-94
2022/03/07 07:58:34;;;;;;;18.30;12.30;;;0.60;99.90;;;;;;5030669;28;20184;-94
2022/03/07 08:01:00;;;;;;;15.37;11.13;;;0.70;99.90;;;;;;5037339;28;20188;-94
2022/03/07 08:03:26;;;;;;;15.10;11.47;;;0.80;99.90;;;;;;5033752;28;20184;-94
2022/03/07 08:05:51;;;;;;;14.00;11.67;;;0.80;99.90;;;;;;5038585;28;20184;-94
2022/03/07 08:08:18;;;;;;;14.20;10.80;;;0.90;99.90;;;;;;5039263;28;20216;-93
2022/03/07 08:10:44;;;;;;;11.17;9.80;;;0.90;21.70;;;;;;5037233;28;20176;-93
2022/03/07 08:13:11;;;;;;;12.97;9.80;;;1.10;1.00;;;;;;5035460;28;20183;-94
2022/03/07 08:15:36;;;;;;;14.83;8.97;;;1.10;27.00;;;;;;5035209;28;20173;-94
2022/03/07 08:18:02;;;;;;;11.67;7.47;;;1.20;1.00;;;;;;5038361;28;20227;-94
2022/03/07 08:20:28;;;;;;;12.60;6.47;;;1.30;1.00;;;;;;5040552;28;20203;-94
2022/03/07 08:22:54;;;;;;;8.40;5.90;;;1.30;99.90;;;;;;5035887;28;20169;-94
2022/03/07 08:25:21;;;;;;;12.27;6.30;;;1.30;99.90;;;;;;5036661;28;20177;-94
2022/03/07 08:27:48;;;;;;;5.53;4.50;;;1.40;65.20;;;;;;5038972;28;20303;-94
2022/03/07 08:30:15;;;;;;;5.30;4.27;;;1.40;99.90;;;;;;5038965;28;20211;-94
2022/03/07 08:32:41;;;;;;;4.80;3.87;;;1.40;1.00;;;;;;5039189;28;20165;-94
2022/03/07 08:35:09;;;;;;;4.50;4.10;;;1.50;1.00;;;;;;5038527;28;20176;-95
2022/03/07 08:37:35;;;;;;;5.67;3.83;;;1.60;99.90;;;;;;5039316;28;20224;-94
2022/03/07 08:40:02;;;;;;;5.60;3.33;;;1.70;99.90;;;;;;5036711;28;20188;-94
2022/03/07 08:42:28;;;;;;;4.37;3.50;;;1.70;99.90;;;;;;5039302;28;20231;-94
2022/03/07 08:44:54;;;;;;;3.33;3.00;;;1.80;1.00;;;;;;5037444;28;20188;-93
2022/03/07 08:47:20;;;;;;;4.07;2.93;;;1.90;1.00;;;;;;5039861;28;20195;-94
2022/03/07 08:49:46;;;;;;;5.67;3.10;;;1.90;1.00;;;;;;5038497;28;20201;-93
2022/03/07 08:52:15;;;;;;;4.43;2.93;;;2.10;1.00;;;;;;5039303;28;20212;-94
2022/03/07 08:54:42;;;;;;;6.30;3.03;;;2.10;1.00;;;;;;5039601;28;20164;-95
2022/03/07 08:57:07;;;;;;;5.30;3.00;;;2.10;99.90;;;;;;5039307;28;20193;-94
2022/03/07 08:59:33;;;;;;;3.87;2.77;;;2.20;99.90;;;;;;5038823;28;20200;-94
2022/03/07 09:02:03;;;;;;;2.90;2.57;;;2.30;99.90;;;;;;5036968;28;20192;-92
2022/03/07 09:04:29;;;;;;;3.53;2.40;;;2.40;1.00;;;;;;5037513;28;20157;-94
2022/03/07 09:06:55;;;;;;;2.90;2.57;;;2.70;1.00;;;;;;5039767;28;20184;-95
2022/03/07 09:09:20;;;;;;;4.03;2.43;;;2.50;1.00;;;;;;5037128;28;20200;-94
2022/03/07 09:11:47;;;;;;;2.83;2.50;;;2.60;1.00;;;;;;5039523;28;20180;-95
2022/03/07 09:14:16;;;;;;;4.00;2.70;;;2.70;1.00;;;;;;5039030;28;20161;-95
2022/03/07 09:16:42;;;;;;;4.03;2.93;;;2.80;1.00;;;;;;5038930;28;20188;-95
2022/03/07 09:19:08;;;;;;;4.30;2.80;;;2.90;99.90;;;;;;5038762;28;20233;-95
2022/03/07 09:21:34;;;;;;;4.43;2.90;;;2.90;1.00;;;;;;5039220;28;20184;-95
2022/03/07 09:24:00;;;;;;;3.13;2.63;;;3.00;1.00;;;;;;5039899;28;20157;-96
2022/03/07 09:26:29;;;;;;;5.53;2.87;;;3.00;1.00;;;;;;5039189;28;20189;-96
2022/03/07 09:28:54;;;;;;;2.57;2.23;;;3.10;99.90;;;;;;5039109;28;20197;-96
2022/03/07 09:31:23;;;;;;;4.90;3.13;;;3.20;99.90;;;;;;5039055;28;20176;-96
2022/03/07 09:33:49;;;;;;;3.07;2.70;;;3.30;99.90;;;;;;5039247;28;20177;-94
2022/03/07 09:36:18;;;;;;;3.30;2.67;;;3.30;99.90;;;;;;5068610;22;20207;-96
2022/03/07 09:38:44;;;;;;;3.00;2.70;;;3.40;99.90;;;;;;5042085;28;20168;-95
2022/03/07 09:41:10;;;;;;;3.10;2.60;;;3.60;99.90;;;;;;5042148;28;20161;-96
2022/03/07 09:43:36;;;;;;;3.17;2.80;;;3.50;99.90;;;;;;5042123;28;20200;-95
2022/03/07 09:46:03;;;;;;;3.80;2.70;;;3.60;99.90;;;;;;5057273;22;20230;-78
2022/03/07 09:48:29;;;;;;;3.67;3.00;;;3.60;53.40;;;;;;5054939;28;20559;-79
2022/03/07 09:50:56;;;;;;;3.63;2.60;;;3.60;30.60;;;;;;5053613;28;20569;-79
2022/03/07 09:53:22;;;;;;;4.73;2.73;;;3.60;32.10;;;;;;5054708;28;20167;-79
2022/03/07 09:55:48;;;;;;;4.30;2.77;;;3.80;98.70;;;;;;5055973;28;20175;-79
2022/03/07 09:58:14;;;;;;;3.33;2.83;;;3.80;5.90;;;;;;5053627;28;20179;-79
2022/03/07 10:00:41;;;;;;;2.90;2.43;;;3.90;1.00;;;;;;5053873;28;20569;-78
2022/03/07 10:03:10;;;;;;;2.63;2.30;;;4.00;1.00;;;;;;5052537;28;20175;-79
2022/03/07 10:05:37;;;;;;;3.37;2.37;;;4.00;1.00;;;;;;5053314;28;20211;-79
2022/03/07 10:08:05;;;;;;;2.43;2.23;;;4.00;1.00;;;;;;5054276;28;20179;-79
2022/03/07 10:10:33;;;;;;;5.37;2.27;;;4.10;1.00;;;;;;5054056;28;20653;-79
2022/03/07 10:13:06;;;;;;;2.43;2.23;;;4.10;1.00;;;;;;5055001;28;20581;-79
2022/03/07 10:15:31;;;;;;;3.10;2.40;;;4.20;1.00;;;;;;5053677;28;20175;-79
2022/03/07 10:17:57;;;;;;;3.43;2.57;;;4.20;1.00;;;;;;5055111;28;20180;-79
2022/03/07 10:20:25;;;;;;;3.97;2.23;;;4.30;1.00;;;;;;5053164;28;20192;-79
2022/03/07 10:22:56;;;;;;;3.03;2.60;;;4.40;1.00;;;;;;5053234;28;20249;-79
2022/03/07 10:25:30;;;;;;;3.27;2.40;;;4.50;1.00;;;;;;5055588;28;20164;-79
2022/03/07 10:27:59;;;;;;;3.10;2.70;;;4.50;1.00;;;;;;5058708;28;20202;-79
2022/03/07 10:30:28;;;;;;;3.07;2.53;;;4.60;1.00;;;;;;5059399;28;20278;-79
2022/03/07 10:32:59;;;;;;;4.23;2.53;;;4.60;1.00;;;;;;5058163;28;20171;-79
2022/03/07 10:35:26;;;;;;;3.23;2.23;;;4.70;1.00;;;;;;5056794;28;20657;-79
2022/03/07 10:37:59;;;;;;;3.07;2.17;;;4.70;1.00;;;;;;5056668;28;20242;-79
2022/03/07 10:40:26;;;;;;;2.90;2.40;;;4.70;1.00;;;;;;5057620;28;20195;-80
2022/03/07 10:42:53;;;;;;;3.53;2.50;;;4.80;1.00;;;;;;5059713;28;20229;-80
2022/03/07 10:45:19;;;;;;;2.57;2.30;;;4.80;1.00;;;;;;5057826;28;20168;-79
2022/03/07 10:47:57;;;;;;;2.63;2.43;;;4.90;1.00;;;;;;5056426;28;20191;-80
2022/03/07 10:50:26;;;;;;;2.67;2.40;;;5.00;1.00;;;;;;5055113;28;20196;-80
2022/03/07 10:52:57;;;;;;;3.33;2.23;;;4.90;99.90;;;;;;5066477;28;20171;-79
2022/03/07 10:55:26;;;;;;;3.93;2.50;;;5.00;1.00;;;;;;5068396;28;20527;-80
2022/03/07 10:57:52;;;;;;;4.77;2.30;;;5.10;1.00;;;;;;5070792;28;20172;-80
2022/03/07 11:00:18;;;;;;;2.10;1.90;;;5.20;99.90;;;;;;5069046;28;20598;-81
2022/03/07 11:02:46;;;;;;;2.60;2.10;;;5.20;99.90;;;;;;5070560;28;20243;-80
2022/03/07 11:05:14;;;;;;;3.70;2.30;;;5.30;99.90;;;;;;5072241;28;20160;-79
2022/03/07 11:07:42;;;;;;;4.07;2.30;;;5.40;99.90;;;;;;5069995;28;20233;-80
2022/03/07 11:10:10;;;;;;;3.33;2.63;;;5.40;99.90;;;;;;5055806;28;20215;-80
2022/03/07 11:12:37;;;;;;;4.10;2.40;;;5.50;99.90;;;;;;5055666;28;20639;-80
2022/03/07 11:15:10;;;;;;;2.40;2.20;;;5.50;99.90;;;;;;5058462;28;20179;-80
2022/03/07 11:17:42;;;;;;;3.33;2.33;;;5.50;99.90;;;;;;5059209;28;20637;-79
2022/03/07 11:20:11;;;;;;;2.27;2.07;;;5.60;99.90;;;;;;5060344;28;20210;-80
2022/03/07 11:22:36;;;;;;;4.03;2.30;;;5.70;99.90;;;;;;5058790;28;20181;-79
2022/03/07 11:25:05;;;;;;;4.40;2.60;;;5.70;99.90;;;;;;5060725;28;20203;-80
2022/03/07 11:27:31;;;;;;;3.40;2.10;;;5.70;99.90;;;;;;5060382;28;20217;-80
2022/03/07 11:29:57;;;;;;;2.27;2.07;;;5.70;99.90;;;;;;5058194;28;20211;-79
2022/03/07 11:32:22;;;;;;;2.70;2.37;;;5.70;99.90;;;;;;5059679;28;20198;-80
2022/03/07 11:34:59;;;;;;;3.13;2.10;;;5.80;99.90;;;;;;5058098;28;20180;-79
2022/03/07 11:37:31;;;;;;;3.43;2.37;;;5.80;99.90;;;;;;5059592;28;20665;-79
2022/03/07 11:39:58;;;;;;;3.30;2.20;;;5.90;99.90;;;;;;5059896;28;20211;-79
2022/03/07 11:42:36;;;;;;;3.57;2.10;;;5.90;99.90;;;;;;5060861;28;20243;-79
2022/03/07 11:45:09;;;;;;;2.47;2.03;;;5.90;99.90;;;;;;5059533;28;20175;-80
2022/03/07 11:47:39;;;;;;;4.97;2.63;;;6.00;99.90;;;;;;5062456;28;20187;-79
2022/03/07 11:50:06;;;;;;;2.63;2.37;;;6.00;99.90;;;;;;5066173;28;20218;-80
2022/03/07 11:52:33;;;;;;;2.63;2.20;;;6.10;99.90;;;;;;5065682;28;20180;-79
2022/03/07 11:55:01;;;;;;;2.80;2.37;;;6.10;99.90;;;;;;5067879;28;20180;-79
2022/03/07 11:57:37;;;;;;;2.87;2.53;;;6.20;99.90;;;;;;5067062;28;20183;-79
2022/03/07 12:00:21;;;;;;;2.47;2.20;;;6.10;99.90;;;;;;5068650;28;20196;-79
2022/03/07 12:02:52;;;;;;;4.73;2.20;;;6.20;99.90;;;;;;5070579;28;20178;-79
2022/03/07 12:05:32;;;;;;;2.57;2.30;;;6.20;99.90;;;;;;5071768;28;20171;-79
2022/03/07 12:08:18;;;;;;;1.93;1.73;;;6.30;99.90;;;;;;5071271;28;20174;-79
2022/03/07 12:10:56;;;;;;;2.67;2.07;;;6.40;99.90;;;;;;5061600;28;20195;-79
2022/03/07 12:13:22;;;;;;;2.60;2.00;;;6.40;99.90;;;;;;5071709;28;20241;-79
2022/03/07 12:15:52;;;;;;;2.73;2.07;;;6.40;99.90;;;;;;5072187;28;20186;-80
2022/03/07 12:18:19;;;;;;;2.37;1.97;;;6.40;99.90;;;;;;5071821;28;20251;-79
2022/03/07 12:20:52;;;;;;;2.10;1.90;;;6.50;74.10;;;;;;5071976;28;20196;-79
2022/03/07 12:23:19;;;;;;;4.97;2.23;;;6.50;57.80;;;;;;5073895;28;20675;-80
2022/03/07 12:25:47;;;;;;;2.80;2.40;;;6.50;79.00;;;;;;5072291;28;20183;-80
2022/03/07 12:28:13;;;;;;;2.93;2.20;;;6.60;65.20;;;;;;5074890;28;20618;-79
2022/03/07 12:30:39;;;;;;;3.30;2.10;;;6.60;28.30;;;;;;5070254;28;20217;-79
2022/03/07 12:33:06;;;;;;;4.97;2.50;;;6.60;1.00;;;;;;5069538;28;20160;-79
2022/03/07 12:35:32;;;;;;;2.93;2.17;;;6.60;1.00;;;;;;5072205;28;20182;-79
2022/03/07 12:37:58;;;;;;;3.47;2.07;;;6.70;1.00;;;;;;5071247;28;20615;-79